Time;durP1;ratioP1;P1;durP2;ratioP2;P2;SDS_P1;SDS_P2;PMS_P1;PMS_P2;Temp;Humidity;BMP_temperature;BMP_pressure;BME280_temperature;BME280_humidity;BME280_pressure;Samples;Min_cycle;Max_cycle;Signal;HPM_P1;HPM_P2
2023/12/27 00:00:07;;;;;;;;;;;;;;;12.32;79.43;98353.36;109467;1253;71499;-66
2023/12/27 00:02:35;;;;;;;;;;;;;;;12.16;79.92;98354.73;109350;1253;60903;-65
2023/12/27 00:05:03;;;;;;;;;;;;;;;12.30;78.26;98356.46;109508;1254;59868;-67
2023/12/27 00:07:30;;;;;;;;;;;;;;;12.10;78.81;98363.08;109473;1254;73473;-67
2023/12/27 00:09:58;;;;;;;;;;;;;;;12.02;80.15;98356.93;109602;1251;67687;-66
2023/12/27 00:12:25;;;;;;;;;;;;;;;12.15;80.08;98360.89;109613;1253;71079;-68
2023/12/27 00:14:52;;;;;;;;;;;;;;;12.11;80.62;98361.92;109510;1253;59792;-67
2023/12/27 00:17:20;;;;;;;;;;;;;;;12.03;81.64;98363.08;109608;1252;59890;-67
2023/12/27 00:19:47;;;;;;;;;;;;;;;11.89;83.18;98363.38;109658;1253;73427;-68
2023/12/27 00:22:15;;;;;;;;;;;;;;;11.87;82.96;98362.02;109561;1254;68863;-67
2023/12/27 00:24:43;;;;;;;;;;;;;;;11.61;84.24;98364.75;109573;1252;71449;-68
2023/12/27 00:27:10;;;;;;;;;;;;;;;11.86;82.27;98373.26;109162;1253;60962;-67
2023/12/27 00:29:38;;;;;;;;;;;;;;;11.84;81.72;98372.90;109299;1252;59007;-67
2023/12/27 00:32:09;;;;;;;;;;;;;;;11.75;81.91;98372.54;109432;1252;74735;-68
2023/12/27 00:34:37;;;;;;;;;;;;;;;11.55;82.26;98377.03;109394;1252;68799;-67
2023/12/27 00:37:05;;;;;;;;;;;;;;;11.55;82.11;98379.14;109512;1253;71582;-68
2023/12/27 00:39:34;;;;;;;;;;;;;;;11.67;81.05;98382.47;109357;1253;58949;-68
2023/12/27 00:42:01;;;;;;;;;;;;;;;11.69;79.95;98377.98;109593;1254;59100;-67
2023/12/27 00:44:29;;;;;;;;;;;;;;;11.78;79.08;98375.13;109602;1252;73716;-67
2023/12/27 00:46:56;;;;;;;;;;;;;;;11.40;80.41;98376.46;109513;1252;68505;-67
2023/12/27 00:49:24;;;;;;;;;;;;;;;11.43;79.73;98380.19;109480;1254;71473;-67
2023/12/27 00:51:52;;;;;;;;;;;;;;;11.28;80.79;98381.98;109467;1254;60956;-68
2023/12/27 00:54:19;;;;;;;;;;;;;;;11.43;79.10;98376.92;109382;1252;59042;-67
2023/12/27 00:56:49;;;;;;;;;;;;;;;11.24;79.43;98379.89;109519;1253;74712;-68
2023/12/27 00:59:16;;;;;;;;;;;;;;;11.23;78.88;98384.14;109092;1253;67313;-67
2023/12/27 01:01:44;;;;;;;;;;;;;;;11.41;77.88;98384.90;109401;1254;72722;-67
2023/12/27 01:04:11;;;;;;;;;;;;;;;11.52;76.88;98386.86;109383;1253;59978;-66
2023/12/27 01:06:39;;;;;;;;;;;;;;;11.35;77.06;98382.18;109242;1257;59778;-66
2023/12/27 01:09:07;;;;;;;;;;;;;;;11.26;77.77;98381.80;109566;1252;74734;-67
2023/12/27 01:11:35;;;;;;;;;;;;;;;11.24;77.32;98383.54;109447;1252;68825;-67
2023/12/27 01:14:03;;;;;;;;;;;;;;;11.38;75.77;98378.55;109508;1254;70745;-66
2023/12/27 01:16:31;;;;;;;;;;;;;;;11.31;75.22;98374.91;109603;1252;60976;-67
2023/12/27 01:18:58;;;;;;;;;;;;;;;11.36;75.06;98386.09;109605;1252;58936;-67
2023/12/27 01:21:25;;;;;;;;;;;;;;;11.28;74.42;98385.98;109630;1253;74718;-65
2023/12/27 01:23:53;;;;;;;;;;;;;;;11.40;73.34;98385.22;109584;1252;67548;-68
2023/12/27 01:26:20;;;;;;;;;;;;;;;11.29;73.97;98385.10;109579;1251;72844;-68
2023/12/27 01:28:48;;;;;;;;;;;;;;;11.24;73.42;98388.16;109525;1253;59929;-67
2023/12/27 01:31:15;;;;;;;;;;;;;;;11.13;73.52;98377.48;109610;1252;60028;-67
2023/12/27 01:33:43;;;;;;;;;;;;;;;11.03;73.71;98384.20;109599;1253;74699;-66
2023/12/27 01:36:11;;;;;;;;;;;;;;;10.89;74.30;98387.02;109482;1253;68818;-67
2023/12/27 01:38:38;;;;;;;;;;;;;;;11.12;73.39;98394.41;109580;1253;71430;-69
2023/12/27 01:41:05;;;;;;;;;;;;;;;11.06;72.96;98390.56;109065;1255;60903;-69
2023/12/27 01:43:33;;;;;;;;;;;;;;;10.91;73.02;98369.77;108997;1257;59886;-67
2023/12/27 01:46:00;;;;;;;;;;;;;;;11.14;72.65;98389.29;109196;1256;74707;-66
2023/12/27 01:48:28;;;;;;;;;;;;;;;11.22;72.22;98387.16;109107;1257;67609;-67
2023/12/27 01:50:58;;;;;;;;;;;;;;;11.28;71.32;98390.05;109068;1257;72379;-67
2023/12/27 01:53:26;;;;;;;;;;;;;;;11.30;71.49;98396.38;108996;1260;59741;-65
2023/12/27 01:55:53;;;;;;;;;;;;;;;11.17;71.53;98395.27;109007;1260;58942;-65
2023/12/27 01:58:22;;;;;;;;;;;;;;;11.32;71.00;98399.02;109069;1257;74716;-67
2023/12/27 02:00:49;;;;;;;;;;;;;;;11.31;70.71;98400.70;109131;1257;68800;-67
2023/12/27 02:03:17;;;;;;;;;;;;;;;11.47;70.54;98400.02;109087;1257;71781;-67
2023/12/27 02:05:45;;;;;;;;;;;;;;;11.53;69.96;98405.61;108987;1257;60118;-67
2023/12/27 02:08:13;;;;;;;;;;;;;;;11.39;70.38;98394.87;109112;1257;58945;-67
2023/12/27 02:10:41;;;;;;;;;;;;;;;11.57;69.43;98398.66;109059;1257;74700;-67
2023/12/27 02:13:08;;;;;;;;;;;;;;;11.46;69.78;98402.04;109312;1253;68617;-68
2023/12/27 02:15:36;;;;;;;;;;;;;;;11.36;69.12;98393.80;109369;1254;72752;-67
2023/12/27 02:18:04;;;;;;;;;;;;;;;11.64;68.24;98392.98;109334;1256;59646;-68
2023/12/27 02:20:32;;;;;;;;;;;;;;;11.57;67.52;98399.73;109264;1254;59048;-67
2023/12/27 02:23:00;;;;;;;;;;;;;;;11.44;68.19;98395.55;109048;1257;74649;-66
2023/12/27 02:25:27;;;;;;;;;;;;;;;11.38;68.15;98388.81;109021;1257;69007;-67
2023/12/27 02:27:55;;;;;;;;;;;;;;;11.38;67.01;98393.58;109014;1257;73196;-66
2023/12/27 02:30:23;;;;;;;;;;;;;;;11.50;66.20;98394.61;109007;1256;59960;-68
2023/12/27 02:32:50;;;;;;;;;;;;;;;11.24;66.02;98381.13;109157;1256;59896;-67
2023/12/27 02:35:18;;;;;;;;;;;;;;;11.28;65.69;98380.38;109013;1260;74740;-67
2023/12/27 02:37:46;;;;;;;;;;;;;;;11.38;65.06;98392.72;109254;1256;67615;-68
2023/12/27 02:40:14;;;;;;;;;;;;;;;11.37;65.78;98391.01;109274;1255;71470;-69
2023/12/27 02:42:41;;;;;;;;;;;;;;;11.44;65.44;98390.89;109136;1257;59653;-64
2023/12/27 02:45:08;;;;;;;;;;;;;;;11.46;66.13;98393.48;109278;1256;58970;-66
2023/12/27 02:47:36;;;;;;;;;;;;;;;11.35;67.31;98387.86;109160;1257;74722;-67
2023/12/27 02:50:04;;;;;;;;;;;;;;;11.40;67.50;98383.83;109139;1256;67541;-67
2023/12/27 02:52:31;;;;;;;;;;;;;;;11.55;66.75;98379.36;109138;1256;72711;-68
2023/12/27 02:54:59;;;;;;;;;;;;;;;11.33;67.24;98378.92;109376;1254;59386;-67
2023/12/27 02:57:27;;;;;;;;;;;;;;;11.30;67.78;98388.14;109336;1254;58896;-67
2023/12/27 02:59:55;;;;;;;;;;;;;;;11.13;68.70;98383.23;109043;1254;73456;-67
2023/12/27 03:02:23;;;;;;;;;;;;;;;11.42;67.50;98393.70;109507;1253;68514;-67
2023/12/27 03:04:50;;;;;;;;;;;;;;;11.46;66.66;98390.36;109540;1253;72774;-68
2023/12/27 03:07:18;;;;;;;;;;;;;;;11.17;67.47;98380.61;109459;1254;61128;-67
2023/12/27 03:09:46;;;;;;;;;;;;;;;11.30;67.55;98386.09;109256;1252;59851;-67
2023/12/27 03:12:13;;;;;;;;;;;;;;;11.38;67.15;98382.71;109457;1254;73412;-68
2023/12/27 03:14:40;;;;;;;;;;;;;;;11.28;66.84;98378.34;109174;1254;68525;-67
2023/12/27 03:17:08;;;;;;;;;;;;;;;11.35;66.84;98376.69;109327;1254;70646;-66
2023/12/27 03:19:35;;;;;;;;;;;;;;;11.38;66.64;98377.55;109479;1253;59865;-68
2023/12/27 03:22:03;;;;;;;;;;;;;;;11.40;66.39;98366.91;109512;1253;59907;-68
2023/12/27 03:24:30;;;;;;;;;;;;;;;11.35;66.51;98379.85;109538;1253;73479;-66
2023/12/27 03:26:58;;;;;;;;;;;;;;;11.29;66.35;98380.25;109445;1254;68790;-67
2023/12/27 03:29:26;;;;;;;;;;;;;;;11.04;67.12;98371.30;109524;1252;71765;-67
2023/12/27 03:31:53;;;;;;;;;;;;;;;11.05;67.47;98375.69;109422;1254;59679;-67
2023/12/27 03:34:21;;;;;;;;;;;;;;;11.26;66.31;98373.36;109413;1253;58892;-67
2023/12/27 03:36:48;;;;;;;;;;;;;;;11.17;66.74;98375.17;109379;1254;74802;-68
2023/12/27 03:39:16;;;;;;;;;;;;;;;10.97;67.40;98373.67;109401;1253;67574;-67
2023/12/27 03:41:44;;;;;;;;;;;;;;;10.94;67.53;98382.04;109120;1254;71430;-67
2023/12/27 03:44:11;;;;;;;;;;;;;;;10.97;67.55;98381.00;109309;1256;59662;-67
2023/12/27 03:46:39;;;;;;;;;;;;;;;10.67;68.77;98357.77;109349;1254;59877;-67
2023/12/27 03:49:06;;;;;;;;;;;;;;;10.77;68.74;98375.35;109473;1254;74708;-68
2023/12/27 03:51:34;;;;;;;;;;;;;;;10.78;67.83;98365.02;109565;1253;67547;-68
2023/12/27 03:54:01;;;;;;;;;;;;;;;10.79;67.91;98371.56;109193;1253;71445;-67
2023/12/27 03:56:29;;;;;;;;;;;;;;;10.86;67.44;98374.66;109177;1253;60933;-67
2023/12/27 03:58:58;;;;;;;;;;;;;;;10.80;67.45;98371.61;109177;1253;60055;-68
2023/12/27 04:01:25;;;;;;;;;;;;;;;10.96;66.84;98372.41;109444;1254;74708;-68
2023/12/27 04:03:53;;;;;;;;;;;;;;;10.85;66.81;98373.33;109490;1254;67231;-68
2023/12/27 04:06:20;;;;;;;;;;;;;;;10.94;66.22;98378.11;109334;1254;71793;-67
2023/12/27 04:08:48;;;;;;;;;;;;;;;10.85;66.88;98373.92;109321;1253;60098;-68
2023/12/27 04:11:15;;;;;;;;;;;;;;;11.00;66.61;98385.14;109479;1253;59962;-68
2023/12/27 04:13:43;;;;;;;;;;;;;;;10.76;67.62;98377.60;109480;1253;74753;-67
2023/12/27 04:16:10;;;;;;;;;;;;;;;10.55;68.41;98354.39;109425;1253;67713;-67
2023/12/27 04:18:38;;;;;;;;;;;;;;;10.70;67.99;98364.08;109407;1253;71481;-68
2023/12/27 04:21:06;;;;;;;;;;;;;;;10.73;67.69;98362.39;109448;1253;59652;-68
2023/12/27 04:23:33;;;;;;;;;;;;;;;10.88;67.13;98368.79;109364;1252;59896;-68
2023/12/27 04:26:00;;;;;;;;;;;;;;;11.10;66.93;98360.80;109341;1253;74716;-68
2023/12/27 04:28:30;;;;;;;;;;;;;;;10.80;67.06;98367.09;109114;1253;68568;-67
2023/12/27 04:30:57;;;;;;;;;;;;;;;10.78;67.33;98361.53;109348;1253;72764;-67
2023/12/27 04:33:25;;;;;;;;;;;;;;;10.70;67.38;98358.29;109429;1253;60906;-67
2023/12/27 04:35:53;;;;;;;;;;;;;;;10.86;66.84;98363.76;109493;1253;59098;-67
2023/12/27 04:38:20;;;;;;;;;;;;;;;11.00;66.44;98354.33;109409;1253;74717;-67
2023/12/27 04:40:49;;;;;;;;;;;;;;;10.77;66.78;98355.00;109395;1252;68515;-67
2023/12/27 04:43:16;;;;;;;;;;;;;;;10.76;66.71;98345.61;109406;1253;72786;-68
2023/12/27 04:45:44;;;;;;;;;;;;;;;10.81;66.12;98344.80;109388;1253;58928;-68
2023/12/27 04:48:12;;;;;;;;;;;;;;;10.80;65.67;98339.48;109556;1252;58921;-67
2023/12/27 04:50:40;;;;;;;;;;;;;;;10.82;65.65;98359.34;109550;1252;74720;-68
2023/12/27 04:53:07;;;;;;;;;;;;;;;10.89;65.62;98366.02;109542;1252;67563;-68
2023/12/27 04:55:35;;;;;;;;;;;;;;;10.83;64.79;98361.16;109382;1253;72743;-66
2023/12/27 04:58:02;;;;;;;;;;;;;;;10.59;66.22;98367.99;109483;1254;59942;-68
2023/12/27 05:00:30;;;;;;;;;;;;;;;10.99;64.61;98373.45;109540;1252;59866;-68
2023/12/27 05:02:57;;;;;;;;;;;;;;;10.73;65.50;98372.64;109419;1252;73466;-66
2023/12/27 05:05:26;;;;;;;;;;;;;;;10.96;64.93;98367.14;109391;1253;68832;-67
2023/12/27 05:07:53;;;;;;;;;;;;;;;10.98;64.65;98355.70;109560;1252;71900;-67
2023/12/27 05:10:21;;;;;;;;;;;;;;;10.79;65.83;98357.91;109358;1254;60938;-68
2023/12/27 05:12:48;;;;;;;;;;;;;;;10.48;66.85;98349.35;109538;1252;59921;-68
2023/12/27 05:15:17;;;;;;;;;;;;;;;10.52;66.88;98364.04;109560;1252;74730;-66
2023/12/27 05:17:45;;;;;;;;;;;;;;;10.63;66.19;98374.98;109514;1251;68840;-68
2023/12/27 05:20:13;;;;;;;;;;;;;;;10.39;67.07;98369.23;109565;1252;71424;-66
2023/12/27 05:22:40;;;;;;;;;;;;;;;10.30;67.70;98362.48;109450;1254;59953;-68
2023/12/27 05:25:08;;;;;;;;;;;;;;;10.38;67.79;98369.45;109513;1252;77421;-68
2023/12/27 05:27:35;;;;;;;;;;;;;;;10.60;66.05;98372.48;109598;1252;73349;-67
2023/12/27 05:30:03;;;;;;;;;;;;;;;10.57;65.92;98372.52;109587;1253;68508;-69
2023/12/27 05:32:31;;;;;;;;;;;;;;;10.52;66.92;98378.27;109611;1252;73441;-69
2023/12/27 05:34:58;;;;;;;;;;;;;;;10.37;67.65;98379.23;109127;1253;60811;-68
2023/12/27 05:37:26;;;;;;;;;;;;;;;10.40;67.43;98384.56;109196;1253;59342;-68
2023/12/27 05:39:53;;;;;;;;;;;;;;;10.45;67.55;98402.08;109387;1253;73439;-69
2023/12/27 05:42:21;;;;;;;;;;;;;;;10.35;68.07;98409.17;109186;1253;67594;-68
2023/12/27 05:44:48;;;;;;;;;;;;;;;10.43;68.28;98403.44;109565;1253;72733;-68
2023/12/27 05:47:16;;;;;;;;;;;;;;;10.12;69.88;98408.46;109587;1253;61085;-67
2023/12/27 05:49:43;;;;;;;;;;;;;;;9.80;71.87;98435.08;109447;1253;59917;-69
2023/12/27 05:52:11;;;;;;;;;;;;;;;9.23;76.37;98432.66;109433;1252;73463;-68
2023/12/27 05:54:38;;;;;;;;;;;;;;;8.76;84.22;98452.50;109413;1252;68597;-65
2023/12/27 05:57:06;;;;;;;;;;;;;;;8.30;88.91;98462.92;109415;1253;71438;-67
2023/12/27 05:59:33;;;;;;;;;;;;;;;7.39;91.01;98440.41;109446;1253;60962;-68
2023/12/27 06:02:01;;;;;;;;;;;;;;;7.24;92.51;98465.52;109447;1253;58970;-69
2023/12/27 06:04:28;;;;;;;;;;;;;;;6.77;95.62;98457.34;109389;1253;73424;-64
2023/12/27 06:06:55;;;;;;;;;;;;;;;6.71;95.41;98421.89;109443;1253;68681;-68
2023/12/27 06:09:23;;;;;;;;;;;;;;;7.11;93.23;98424.84;109453;1253;72761;-68
2023/12/27 06:11:50;;;;;;;;;;;;;;;7.28;92.39;98421.20;109400;1253;60975;-67
2023/12/27 06:14:19;;;;;;;;;;;;;;;7.49;91.00;98423.21;109218;1253;58994;-67
2023/12/27 06:16:46;;;;;;;;;;;;;;;7.55;91.14;98436.97;109534;1252;77303;-69
2023/12/27 06:19:14;;;;;;;;;;;;;;;7.28;91.37;98441.54;109566;1253;67308;-68
2023/12/27 06:21:42;;;;;;;;;;;;;;;7.15;91.94;98461.64;109575;1252;72708;-67
2023/12/27 06:24:09;;;;;;;;;;;;;;;7.26;91.21;98462.83;109427;1254;59693;-68
2023/12/27 06:26:37;;;;;;;;;;;;;;;7.13;90.91;98465.48;109589;1253;58884;-67
2023/12/27 06:29:04;;;;;;;;;;;;;;;7.17;92.65;98470.50;109567;1252;73460;-66
2023/12/27 06:31:34;;;;;;;;;;;;;;;7.35;92.22;98474.30;109566;1252;68809;-67
2023/12/27 06:34:02;;;;;;;;;;;;;;;7.57;90.67;98446.42;109547;1253;72686;-64
2023/12/27 06:36:30;;;;;;;;;;;;;;;7.62;89.85;98451.79;109555;1252;60918;-66
2023/12/27 06:38:57;;;;;;;;;;;;;;;7.61;88.04;98456.75;109618;1253;59300;-67
2023/12/27 06:41:25;;;;;;;;;;;;;;;7.35;88.42;98479.80;109523;1252;73436;-65
2023/12/27 06:43:52;;;;;;;;;;;;;;;7.53;89.02;98490.31;109606;1253;68463;-66
2023/12/27 06:46:20;;;;;;;;;;;;;;;7.42;89.48;98489.57;109553;1252;72665;-66
2023/12/27 06:48:47;;;;;;;;;;;;;;;7.61;89.13;98496.64;109457;1253;59411;-67
2023/12/27 06:51:15;;;;;;;;;;;;;;;7.84;88.78;98508.07;109414;1253;58873;-64
2023/12/27 06:53:42;;;;;;;;;;;;;;;7.65;88.73;98512.04;109497;1253;72796;-65
2023/12/27 06:56:10;;;;;;;;;;;;;;;7.64;90.01;98522.20;109160;1252;68556;-64
2023/12/27 06:58:38;;;;;;;;;;;;;;;7.78;88.37;98522.16;109382;1253;71467;-65
2023/12/27 07:01:06;;;;;;;;;;;;;;;7.95;88.15;98528.31;109464;1254;59701;-66
2023/12/27 07:03:33;;;;;;;;;;;;;;;7.73;88.68;98530.41;109376;1253;59843;-65
2023/12/27 07:06:01;;;;;;;;;;;;;;;7.84;88.15;98530.09;109455;1253;74755;-67
2023/12/27 07:08:30;;;;;;;;;;;;;;;7.64;88.70;98526.36;109462;1252;68532;-65
2023/12/27 07:10:57;;;;;;;;;;;;;;;7.62;88.39;98524.80;109518;1253;72695;-65
2023/12/27 07:13:25;;;;;;;;;;;;;;;7.79;87.27;98525.91;109480;1253;60859;-65
2023/12/27 07:15:53;;;;;;;;;;;;;;;7.56;87.21;98527.59;109414;1254;58946;-64
2023/12/27 07:18:20;;;;;;;;;;;;;;;7.68;86.78;98539.35;109362;1254;72827;-66
2023/12/27 07:20:48;;;;;;;;;;;;;;;7.80;85.47;98551.02;109411;1253;68967;-66
2023/12/27 07:23:15;;;;;;;;;;;;;;;7.80;85.69;98551.29;109371;1254;70958;-66
2023/12/27 07:25:43;;;;;;;;;;;;;;;7.80;85.76;98555.61;109315;1255;60841;-65
2023/12/27 07:28:10;;;;;;;;;;;;;;;7.88;85.28;98562.23;109369;1253;59878;-66
2023/12/27 07:30:37;;;;;;;;;;;;;;;7.89;84.40;98565.15;109367;1256;75178;-65
2023/12/27 07:33:05;;;;;;;;;;;;;;;7.79;85.03;98572.70;109150;1253;68944;-65
2023/12/27 07:35:33;;;;;;;;;;;;;;;7.77;83.97;98583.76;109386;1254;70482;-66
2023/12/27 07:38:00;;;;;;;;;;;;;;;7.76;82.85;98588.55;109370;1254;60930;-66
2023/12/27 07:40:28;;;;;;;;;;;;;;;7.93;80.68;98605.10;109127;1253;59903;-66
2023/12/27 07:42:56;;;;;;;;;;;;;;;7.82;79.00;98599.75;109104;1254;74745;-65
2023/12/27 07:45:23;;;;;;;;;;;;;;;7.59;78.79;98608.43;109442;1253;69048;-63
2023/12/27 07:47:51;;;;;;;;;;;;;;;7.70;77.37;98608.61;109140;1254;72792;-65
2023/12/27 07:50:18;;;;;;;;;;;;;;;7.70;76.28;98616.34;109112;1255;59702;-65
2023/12/27 07:52:46;;;;;;;;;;;;;;;8.14;74.72;98636.63;109111;1254;59135;-65
2023/12/27 07:55:14;;;;;;;;;;;;;;;8.57;71.07;98624.33;109396;1254;74713;-62
2023/12/27 07:57:43;;;;;;;;;;;;;;;9.00;69.15;98642.34;109096;1253;68524;-62
2023/12/27 08:00:11;;;;;;;;;;;;;;;9.19;67.49;98639.86;109283;1254;72764;-65
2023/12/27 08:02:38;;;;;;;;;;;;;;;9.47;65.51;98644.35;109362;1254;60923;-65
2023/12/27 08:05:06;;;;;;;;;;;;;;;9.77;64.75;98656.33;109404;1254;58956;-66
2023/12/27 08:07:34;;;;;;;;;;;;;;;9.80;63.76;98662.33;109384;1254;73594;-65
2023/12/27 08:10:02;;;;;;;;;;;;;;;9.98;62.31;98662.09;109579;1252;67561;-65
2023/12/27 08:12:30;;;;;;;;;;;;;;;9.83;63.05;98670.27;109590;1252;71467;-66
2023/12/27 08:14:58;;;;;;;;;;;;;;;10.12;61.13;98668.60;109112;1253;60944;-65
2023/12/27 08:17:26;;;;;;;;;;;;;;;9.73;61.41;98673.10;109509;1252;59874;-66
2023/12/27 08:19:54;;;;;;;;;;;;;;;9.81;61.45;98683.27;109505;1253;74718;-66
2023/12/27 08:22:21;;;;;;;;;;;;;;;9.76;60.42;98692.99;109420;1253;68837;-67
2023/12/27 08:24:49;;;;;;;;;;;;;;;9.68;61.98;98705.34;109602;1253;72754;-65
2023/12/27 08:27:17;;;;;;;;;;;;;;;9.58;61.85;98702.11;109556;1252;60941;-65
2023/12/27 08:29:44;;;;;;;;;;;;;;;9.08;62.46;98697.55;109559;1253;59047;-65
2023/12/27 08:32:12;;;;;;;;;;;;;;;9.33;61.56;98704.94;109556;1251;74757;-65
2023/12/27 08:34:39;;;;;;;;;;;;;;;9.39;60.77;98700.02;109545;1252;68848;-65
2023/12/27 08:37:07;;;;;;;;;;;;;;;9.16;60.87;98703.19;109568;1253;72782;-62
2023/12/27 08:39:35;;;;;;;;;;;;;;;9.32;60.91;98721.91;109118;1254;61067;-66
2023/12/27 08:42:02;;;;;;;;;;;;;;;9.17;60.44;98723.17;109340;1254;58973;-66
2023/12/27 08:44:30;;;;;;;;;;;;;;;9.22;60.58;98729.12;109413;1254;74742;-66
2023/12/27 08:46:57;;;;;;;;;;;;;;;9.29;60.18;98732.89;109402;1253;68802;-64
2023/12/27 08:49:25;;;;;;;;;;;;;;;9.33;59.41;98727.96;109546;1253;70805;-66
2023/12/27 08:51:53;;;;;;;;;;;;;;;9.58;58.81;98740.53;109441;1254;60915;-66
2023/12/27 08:54:20;;;;;;;;;;;;;;;9.39;58.55;98739.54;109466;1252;58891;-66
2023/12/27 08:56:48;;;;;;;;;;;;;;;9.33;58.34;98740.27;109489;1255;74739;-66
2023/12/27 08:59:15;;;;;;;;;;;;;;;9.32;57.62;98734.55;109471;1252;68836;-67
2023/12/27 09:01:43;;;;;;;;;;;;;;;9.41;57.27;98744.30;109123;1252;71494;-66
2023/12/27 09:04:10;;;;;;;;;;;;;;;9.66;56.68;98734.48;109358;1253;59787;-66
2023/12/27 09:06:38;;;;;;;;;;;;;;;9.79;56.38;98742.20;109474;1253;59839;-65
2023/12/27 09:09:06;;;;;;;;;;;;;;;9.78;56.24;98735.13;109528;1252;74868;-62
2023/12/27 09:11:33;;;;;;;;;;;;;;;9.58;56.06;98744.28;109632;1252;68805;-65
2023/12/27 09:14:08;;;;;;;;;;;;;;;9.43;56.25;98736.98;109473;1252;72725;-63
2023/12/27 09:16:36;;;;;;;;;;;;;;;9.84;55.58;98740.10;109599;1252;59940;-65
2023/12/27 09:19:04;;;;;;;;;;;;;;;9.54;56.57;98750.28;109641;1252;58909;-63
2023/12/27 09:21:33;;;;;;;;;;;;;;;9.68;55.64;98745.68;109339;1252;74804;-63
2023/12/27 09:24:00;;;;;;;;;;;;;;;9.75;54.90;98749.27;109557;1252;68791;-65
2023/12/27 09:26:28;;;;;;;;;;;;;;;9.55;55.88;98740.64;109330;1252;72731;-63
2023/12/27 09:28:55;;;;;;;;;;;;;;;9.41;56.32;98752.67;109184;1254;59650;-64
2023/12/27 09:31:29;;;;;;;;;;;;;;;9.76;55.85;98757.25;109356;1252;59899;-64
2023/12/27 09:33:59;;;;;;;;;;;;;;;10.44;54.02;98762.52;109653;1251;74722;-65
2023/12/27 09:36:27;;;;;;;;;;;;;;;11.05;52.50;98770.96;109567;1251;68852;-66
2023/12/27 09:38:54;;;;;;;;;;;;;;;10.84;51.27;98762.45;109309;1251;72722;-68
2023/12/27 09:41:22;;;;;;;;;;;;;;;10.24;53.20;98761.95;109192;1255;59464;-66
2023/12/27 09:43:50;;;;;;;;;;;;;;;10.19;54.44;98765.23;109364;1252;61990;-65
2023/12/27 09:46:18;;;;;;;;;;;;;;;9.92;54.55;98765.73;109342;1253;73448;-65
2023/12/27 09:48:45;;;;;;;;;;;;;;;9.79;55.79;98750.87;109175;1255;67590;-68
2023/12/27 09:51:13;;;;;;;;;;;;;;;9.58;55.49;98758.74;109290;1256;73003;-63
2023/12/27 09:53:44;;;;;;;;;;;;;;;9.75;54.48;98766.73;109242;1255;59657;-63
2023/12/27 09:56:11;;;;;;;;;;;;;;;9.52;55.35;98764.30;109195;1255;59034;-65
2023/12/27 09:58:39;;;;;;;;;;;;;;;9.69;55.02;98781.26;109262;1256;74687;-64
2023/12/27 10:01:06;;;;;;;;;;;;;;;9.81;54.69;98772.00;109291;1256;67440;-65
2023/12/27 10:03:35;;;;;;;;;;;;;;;9.73;55.21;98784.17;109196;1256;71496;-67
2023/12/27 10:06:11;;;;;;;;;;;;;;;9.58;55.80;98784.63;109120;1256;63104;-62
2023/12/27 10:08:39;;;;;;;;;;;;;;;9.76;55.26;98786.32;108990;1256;59875;-63
2023/12/27 10:11:08;;;;;;;;;;;;;;;9.87;55.92;98791.40;109120;1256;74691;-64
2023/12/27 10:13:36;;;;;;;;;;;;;;;9.54;56.66;98783.77;109171;1256;67658;-65
2023/12/27 10:16:04;;;;;;;;;;;;;;;9.81;56.53;98793.77;109186;1256;70672;-64
2023/12/27 10:18:31;;;;;;;;;;;;;;;9.72;56.06;98790.02;109165;1256;59704;-65
2023/12/27 10:21:00;;;;;;;;;;;;;;;9.62;55.78;98795.45;109450;1252;59045;-62
2023/12/27 10:23:28;;;;;;;;;;;;;;;9.74;55.24;98794.88;109579;1251;74702;-64
2023/12/27 10:25:55;;;;;;;;;;;;;;;9.37;55.98;98788.29;109643;1252;68760;-66
2023/12/27 10:28:26;;;;;;;;;;;;;;;9.55;55.09;98801.55;109618;1251;72740;-63
2023/12/27 10:30:53;;;;;;;;;;;;;;;9.53;54.79;98800.11;109619;1252;60892;-65
2023/12/27 10:33:21;;;;;;;;;;;;;;;9.72;55.02;98809.02;109284;1252;59861;-61
2023/12/27 10:35:56;;;;;;;;;;;;;;;9.58;55.69;98806.05;109579;1251;73943;-65
2023/12/27 10:38:24;;;;;;;;;;;;;;;9.61;55.29;98799.05;109312;1252;68841;-65
2023/12/27 10:40:53;;;;;;;;;;;;;;;9.71;55.36;98810.31;109531;1252;71465;-64
2023/12/27 10:43:24;;;;;;;;;;;;;;;9.67;54.69;98815.45;109525;1253;60914;-65
2023/12/27 10:45:52;;;;;;;;;;;;;;;9.71;54.25;98807.80;109619;1253;59948;-64
2023/12/27 10:48:19;;;;;;;;;;;;;;;9.50;54.99;98816.05;109515;1253;73461;-64
2023/12/27 10:50:47;;;;;;;;;;;;;;;9.50;55.14;98815.30;109360;1253;67371;-64
2023/12/27 10:53:15;;;;;;;;;;;;;;;9.51;55.26;98821.05;109308;1253;72726;-65
2023/12/27 10:55:43;;;;;;;;;;;;;;;9.41;56.20;98811.96;109298;1254;59698;-61
2023/12/27 10:58:20;;;;;;;;;;;;;;;9.50;55.83;98821.85;109314;1252;59944;-65
2023/12/27 11:00:47;;;;;;;;;;;;;;;9.60;55.18;98827.71;109490;1253;73782;-65
2023/12/27 11:03:15;;;;;;;;;;;;;;;9.53;55.70;98820.89;109302;1253;67649;-65
2023/12/27 11:05:42;;;;;;;;;;;;;;;9.60;55.72;98827.35;109320;1253;71639;-65
2023/12/27 11:08:13;;;;;;;;;;;;;;;9.76;55.04;98825.65;109119;1254;59723;-61
2023/12/27 11:10:41;;;;;;;;;;;;;;;9.38;55.44;98820.42;109306;1253;60111;-66
2023/12/27 11:13:12;;;;;;;;;;;;;;;9.46;55.55;98817.61;109566;1252;74737;-63
2023/12/27 11:15:44;;;;;;;;;;;;;;;9.53;54.99;98816.19;109613;1251;68907;-61
2023/12/27 11:18:12;;;;;;;;;;;;;;;9.60;54.62;98830.29;109568;1252;71497;-63
2023/12/27 11:20:40;;;;;;;;;;;;;;;9.67;54.02;98836.90;109524;1253;61075;-65
2023/12/27 11:23:08;;;;;;;;;;;;;;;9.72;54.42;98837.76;109563;1253;59031;-64
2023/12/27 11:25:35;;;;;;;;;;;;;;;9.64;54.94;98834.47;109566;1253;74705;-63
2023/12/27 11:28:03;;;;;;;;;;;;;;;9.48;55.07;98840.86;109527;1251;68650;-61
2023/12/27 11:30:32;;;;;;;;;;;;;;;9.55;55.28;98835.95;109595;1252;71449;-61
2023/12/27 11:32:59;;;;;;;;;;;;;;;9.94;53.91;98838.70;109552;1252;60281;-66
2023/12/27 11:35:27;;;;;;;;;;;;;;;10.02;53.48;98844.28;109477;1251;59123;-63
2023/12/27 11:38:14;;;;;;;;;;;;;;;10.08;52.93;98837.90;109591;1252;73444;-64
2023/12/27 11:40:43;;;;;;;;;;;;;;;9.97;53.08;98836.78;109563;1252;67895;-65
2023/12/27 11:43:15;;;;;;;;;;;;;;;9.95;51.54;98832.04;109637;1251;70432;-66
2023/12/27 11:45:58;;;;;;;;;;;;;;;10.70;50.05;98842.81;109535;1253;59471;-65
2023/12/27 11:48:27;;;;;;;;;;;;;;;11.01;48.34;98850.09;109400;1252;59870;-65
2023/12/27 11:50:56;;;;;;;;;;;;;;;11.09;47.96;98846.79;109355;1253;74731;-66
2023/12/27 11:53:27;;;;;;;;;;;;;;;11.48;47.11;98854.41;109553;1253;68816;-66
2023/12/27 11:55:58;;;;;;;;;;;;;;;11.58;46.66;98860.36;109523;1256;72756;-65
2023/12/27 11:58:30;;;;;;;;;;;;;;;11.25;47.64;98860.63;109529;1253;59716;-64
2023/12/27 12:01:16;;;;;;;;;;;;;;;10.96;48.54;98868.42;109244;1253;58950;-65
2023/12/27 12:03:44;;;;;;;;;;;;;;;10.35;49.46;98864.68;109339;1253;74654;-65
2023/12/27 12:06:17;;;;;;;;;;;;;;;9.93;52.67;98890.77;109350;1253;67262;-65
2023/12/27 12:08:45;;;;;;;;;;;;;;;9.42;59.57;98890.00;109373;1252;70751;-65
2023/12/27 12:11:14;;;;;;;;;;;;;;;8.50;68.30;98868.86;109588;1253;60865;-65
2023/12/27 12:13:41;;;;;;;;;;;;;;;7.60;78.48;98906.10;109569;1253;58969;-64
2023/12/27 12:16:09;;;;;;;;;;;;;;;6.94;88.27;98913.27;109604;1252;75196;-64
2023/12/27 12:18:39;;;;;;;;;;;;;;;7.31;88.95;98919.81;109601;1252;68879;-65
2023/12/27 12:21:07;;;;;;;;;;;;;;;7.12;90.28;98912.67;109565;1251;72732;-65
2023/12/27 12:23:35;;;;;;;;;;;;;;;7.36;90.64;98918.79;109514;1254;59704;-66
2023/12/27 12:26:03;;;;;;;;;;;;;;;7.24;91.81;98920.36;109645;1252;58917;-64
2023/12/27 12:28:30;;;;;;;;;;;;;;;7.26;91.69;98917.55;109520;1251;73447;-65
2023/12/27 12:30:58;;;;;;;;;;;;;;;7.49;90.71;98926.05;109497;1254;68392;-60
2023/12/27 12:33:25;;;;;;;;;;;;;;;7.42;90.22;98925.50;109375;1254;72870;-60
2023/12/27 12:35:54;;;;;;;;;;;;;;;7.61;89.14;98929.84;109357;1254;59892;-64
2023/12/27 12:38:22;;;;;;;;;;;;;;;7.52;88.79;98929.02;109300;1254;59881;-60
2023/12/27 12:40:50;;;;;;;;;;;;;;;7.61;86.13;98936.89;109393;1254;73504;-62
2023/12/27 12:43:17;;;;;;;;;;;;;;;7.78;83.79;98936.55;109373;1253;67653;-61